Latest Weather Observations for Wattamolla

IDN60801

Issued at 10:35 pm EST Wednesday 30 July 2014 (issued every 30 minutes, with the page automatically refreshed every 10 minutes)

About weather observations | Map of weather stations | Latest weather observations for NSW | Other Formats
Station Details ID: 066208 Name: WATTAMOLLA AWS Lat: -34.14 Lon: 151.12 Height: 44.0 m
Data from the previous 72 hours. | See also: Recent months for locations in New South Wales
Date/Time
EST
Temp
°C
App
Temp
°C
Dew
Point
Rel
Hum
%
Delta-T
°C
Wind Press
QNH
hPa
Press
MSL
hPa
Rain
since 9 am
mm
Dir
 
Spd
km/h
Gust
km/h
Spd
kts
Gust
kts
30/10:30pm - - - - - NNW 11 15 6 8 - - -
30/10:00pm - - - - - NW 17 20 9 11 - - -
30/09:30pm - - - - - NNW 13 15 7 8 - - -
30/09:00pm - - - - - NNW 13 17 7 9 - - -
30/08:30pm - - - - - NW 15 19 8 10 - - -
30/08:00pm - - - - - NW 17 20 9 11 - - -
30/07:30pm - - - - - NW 15 17 8 9 - - -
30/07:00pm - - - - - NW 13 17 7 9 - - -
30/06:30pm - - - - - WNW 15 17 8 9 - - -
30/06:00pm - - - - - W 17 19 9 10 - - -
30/05:30pm - - - - - W 17 19 9 10 - - -
30/05:00pm - - - - - WNW 17 22 9 12 - - -
30/04:30pm - - - - - W 13 19 7 10 - - -
30/04:00pm - - - - - W 13 17 7 9 - - -
30/03:30pm - - - - - WNW 15 28 8 15 - - -
30/03:00pm - - - - - W 13 22 7 12 - - -
30/02:30pm - - - - - WNW 17 22 9 12 - - -
30/02:00pm - - - - - W 19 30 10 16 - - -
30/01:30pm - - - - - WNW 17 26 9 14 - - -
30/01:00pm - - - - - WNW 17 28 9 15 - - -
30/12:30pm - - - - - W 19 28 10 15 - - -
30/12:00pm - - - - - W 20 32 11 17 - - -
30/11:30am - - - - - W 19 32 10 17 - - -
30/11:00am - - - - - W 20 30 11 16 - - -
30/10:30am - - - - - WNW 22 33 12 18 - - -
30/10:00am - - - - - N 9 15 5 8 - - -
30/09:30am - - - - - NE 11 17 6 9 - - -
30/09:00am - - - - - NNW 6 13 3 7 - - -
30/08:30am - - - - - N 7 11 4 6 - - -
30/08:00am - - - - - N 9 13 5 7 - - -
30/07:30am - - - - - NNE 9 13 5 7 - - -
30/07:00am - - - - - N 11 15 6 8 - - -
30/06:30am - - - - - NNW 13 17 7 9 - - -
30/06:00am - - - - - NW 9 15 5 8 - - -
30/05:30am - - - - - E 6 13 3 7 - - -
30/05:00am - - - - - NNW 9 26 5 14 - - -
30/04:30am - - - - - NNE 9 17 5 9 - - -
30/04:00am - - - - - NNE 13 19 7 10 - - -
30/03:30am - - - - - NNE 9 15 5 8 - - -
30/03:00am - - - - - NNW 11 22 6 12 - - -
30/02:30am - - - - - NNW 17 26 9 14 - - -
30/02:00am - - - - - NW 20 28 11 15 - - -
30/01:30am - - - - - NW 19 22 10 12 - - -
30/01:00am - - - - - NNW 15 19 8 10 - - -
30/12:30am - - - - - NNW 15 19 8 10 - - -
30/12:00am - - - - - N 17 19 9 10 - - -
 
Date/Time
EST
Temp
°C
App
Temp
°C
Dew
Point
Rel
Hum
%
Delta-T
°C
Wind Press
QNH
hPa
Press
MSL
hPa
Rain
since 9 am
mm
Dir
 
Spd
km/h
Gust
km/h
Spd
kts
Gust
kts
29/11:30pm - - - - - N 17 19 9 10 - - -
29/11:00pm - - - - - N 17 20 9 11 - - -
29/10:30pm - - - - - N 17 20 9 11 - - -
29/10:00pm - - - - - N 17 22 9 12 - - -
29/09:30pm - - - - - N 17 20 9 11 - - -
29/09:00pm - - - - - NNW 15 20 8 11 - - -
29/08:30pm - - - - - N 13 17 7 9 - - -
29/08:00pm - - - - - NNW 13 19 7 10 - - -
29/07:30pm - - - - - NW 19 26 10 14 - - -
29/07:00pm - - - - - NW 17 22 9 12 - - -
29/06:30pm - - - - - NW 19 22 10 12 - - -
29/06:00pm - - - - - NW 20 24 11 13 - - -
29/05:30pm - - - - - NW 19 26 10 14 - - -
29/05:00pm - - - - - NW 13 17 7 9 - - -
29/04:30pm - - - - - WNW 9 15 5 8 - - -
29/04:00pm - - - - - NW 11 17 6 9 - - -
29/03:30pm - - - - - N 15 20 8 11 - - -
29/03:00pm - - - - - N 19 28 10 15 - - -
29/02:30pm - - - - - N 24 32 13 17 - - -
29/02:00pm - - - - - N 26 39 14 21 - - -
29/01:30pm - - - - - N 26 35 14 19 - - -
29/01:00pm - - - - - N 20 30 11 16 - - -
29/12:30pm - - - - - N 24 41 13 22 - - -
29/12:00pm - - - - - N 28 39 15 21 - - -
29/11:30am - - - - - N 22 32 12 17 - - -
29/11:00am - - - - - N 19 28 10 15 - - -
29/10:30am - - - - - N 19 28 10 15 - - -
29/10:00am - - - - - NNW 19 26 10 14 - - -
29/09:30am - - - - - NNW 20 32 11 17 - - -
29/09:00am - - - - - NW 20 37 11 20 - - -
29/08:30am - - - - - NNW 17 22 9 12 - - -
29/08:00am - - - - - N 13 17 7 9 - - -
29/07:30am - - - - - N 17 20 9 11 - - -
29/07:00am - - - - - NNW 22 30 12 16 - - -
29/06:30am - - - - - NNW 17 24 9 13 - - -
29/06:00am - - - - - NNW 24 33 13 18 - - -
29/05:30am - - - - - NW 22 32 12 17 - - -
29/05:00am - - - - - NW 13 22 7 12 - - -
29/04:30am - - - - - NW 22 32 12 17 - - -
29/04:00am - - - - - NW 19 28 10 15 - - -
29/03:30am - - - - - NNW 15 22 8 12 - - -
29/03:00am - - - - - NW 7 11 4 6 - - -
29/02:30am - - - - - NNE 9 13 5 7 - - -
29/02:00am - - - - - N 9 15 5 8 - - -
29/01:30am - - - - - NNW 17 30 9 16 - - -
29/01:00am - - - - - NNW 15 20 8 11 - - -
29/12:30am - - - - - N 15 17 8 9 - - -
29/12:00am - - - - - N 13 17 7 9 - - -
 
Date/Time
EST
Temp
°C
App
Temp
°C
Dew
Point
Rel
Hum
%
Delta-T
°C
Wind Press
QNH
hPa
Press
MSL
hPa
Rain
since 9 am
mm
Dir
 
Spd
km/h
Gust
km/h
Spd
kts
Gust
kts
28/11:30pm - - - - - ENE 11 17 6 9 - - -
28/11:00pm - - - - - N 13 15 7 8 - - -
28/10:30pm - - - - - NNW 13 15 7 8 - - -
28/10:00pm - - - - - NNW 13 15 7 8 - - -
28/09:30pm - - - - - NW 15 15 8 8 - - -
28/09:00pm - - - - - NW 17 17 9 9 - - -
28/08:30pm - - - - - NW 15 17 8 9 - - -
28/08:00pm - - - - - NW 17 17 9 9 - - -
28/07:30pm - - - - - NW 15 15 8 8 - - -
28/07:00pm - - - - - NW 15 17 8 9 - - -
28/06:30pm - - - - - NW 15 17 8 9 - - -
28/06:00pm - - - - - NW 17 19 9 10 - - -
28/05:30pm - - - - - NW 17 19 9 10 - - -
28/05:00pm - - - - - NNW 13 15 7 8 - - -
28/04:30pm - - - - - NNW 9 11 5 6 - - -
28/04:00pm - - - - - WNW 9 13 5 7 - - -
28/03:30pm - - - - - WNW 17 22 9 12 - - -
28/03:00pm - - - - - WSW 6 15 3 8 - - -
28/02:30pm - - - - - W 4 9 2 5 - - -
28/02:00pm - - - - - SW 6 9 3 5 - - -
28/01:30pm - - - - - WNW 9 15 5 8 - - -
28/01:00pm - - - - - WNW 17 28 9 15 - - -
28/12:30pm - - - - - W 19 30 10 16 - - -
28/12:00pm - - - - - W 20 30 11 16 - - -
28/11:30am - - - - - W 19 30 10 16 - - -
28/11:00am - - - - - W 17 24 9 13 - - -
28/10:30am - - - - - W 13 19 7 10 - - -
28/10:00am - - - - - W 9 13 5 7 - - -
28/09:30am - - - - - W 19 30 10 16 - - -
28/09:00am - - - - - NE 7 17 4 9 - - -
28/08:30am - - - - - NNW 11 15 6 8 - - -
28/08:00am - - - - - NW 13 19 7 10 - - -
28/07:30am - - - - - NNW 9 15 5 8 - - -
28/07:00am - - - - - NW 13 17 7 9 - - -
28/06:30am - - - - - WNW 19 26 10 14 - - -
28/06:00am - - - - - NW 19 26 10 14 - - -
28/05:30am - - - - - NW 13 22 7 12 - - -
28/05:00am - - - - - NNE 6 13 3 7 - - -
28/04:30am - - - - - S 6 11 3 6 - - -
28/04:00am - - - - - NNW 6 13 3 7 - - -
28/03:30am - - - - - WNW 11 17 6 9 - - -
28/03:00am - - - - - NNW 9 13 5 7 - - -
28/02:30am - - - - - WNW 19 28 10 15 - - -
28/02:00am - - - - - WNW 17 19 9 10 - - -
28/01:30am - - - - - W 19 22 10 12 - - -
28/01:00am - - - - - W 19 22 10 12 - - -
28/12:30am - - - - - WNW 24 30 13 16 - - -
28/12:00am - - - - - WNW 9 19 5 10 - - -
 
Date/Time
EST
Temp
°C
App
Temp
°C
Dew
Point
Rel
Hum
%
Delta-T
°C
Wind Press
QNH
hPa
Press
MSL
hPa
Rain
since 9 am
mm
Dir
 
Spd
km/h
Gust
km/h
Spd
kts
Gust
kts
27/11:30pm - - - - - NW 17 22 9 12 - - -
27/11:00pm - - - - - NW 20 24 11 13 - - -

Other Formats:

Comma delimited format used in spreadsheet applications
http://www.bom.gov.au/fwo/IDN60801/IDN60801.95752.axf

JavaScript Object Notation format (JSON) in row-major order
http://www.bom.gov.au/fwo/IDN60801/IDN60801.95752.json